Depesza METAR lotniska Warszawa-Okęcie

METAR = EPWA 021330Z 04012KT 360V060 CAVOK 19/12 Q1019 NOSIG

STACJA......... EPWA - Warszawa-Okęcie (WAW)
POMIAR......... Tue Sep 2, 15:30 CEST
TERAZ.......... Tue Sep 2, 15:56 CEST
CZAS........... 26 min temu
WIATR.......... północno-wschodni (NE) z prędkością 22 km/h
WIDZIALNOŚĆ.. powyżej 10 kilometrów
CHMURY......... bezchmurne niebo
TEMPERATURA.... 19°C
T.PUNKTU ROSY.. 12°C
WILGOTNOŚĆ... 64%
CIŚNIENIE..... 1019 hPa
PROGNOZA....... bez nagłych zmian w ciągu 2h

Depesza METAR lotniska Kraków-Balice

METAR = EPKK 021330Z 06007KT 010V100 9999 BKN030 20/15 Q1016

STACJA......... EPKK - Kraków-Balice (KRK)
POMIAR......... Tue Sep 2, 15:30 CEST
TERAZ.......... Tue Sep 2, 15:56 CEST
CZAS........... 26 min temu
WIATR.......... wschodni północno-wschodni (ENE) z prędkością 13 km/h
WIDZIALNOŚĆ.. powyżej 10 kilometrów
CHMURY......... zachmurzenie średnie (5/8-7/8)
TEMPERATURA.... 20°C
T.PUNKTU ROSY.. 15°C
WILGOTNOŚĆ... 73%
CIŚNIENIE..... 1016 hPa

Depesza METAR lotniska Łódź-Lublinek

METAR = EPLL 021330Z 05008KT 9999 BKN024 17/12 Q1019

STACJA......... EPLL - Łódź-Lublinek (LCJ)
POMIAR......... Tue Sep 2, 15:30 CEST
TERAZ.......... Tue Sep 2, 15:56 CEST
CZAS........... 26 min temu
WIATR.......... północno-wschodni (NE) z prędkością 15 km/h
WIDZIALNOŚĆ.. powyżej 10 kilometrów
CHMURY......... zachmurzenie średnie (5/8-7/8)
TEMPERATURA.... 17°C
T.PUNKTU ROSY.. 12°C
WILGOTNOŚĆ... 73%
CIŚNIENIE..... 1019 hPa

Depesza METAR lotniska Wrocław-Strachowice

METAR = EPWR 021330Z 01005KT 340V040 9999 -RA BKN006 OVC012 15/13 Q1019

STACJA......... EPWR - Wrocław-Strachowice (WRO)
POMIAR......... Tue Sep 2, 15:30 CEST
TERAZ.......... Tue Sep 2, 15:56 CEST
CZAS........... 26 min temu
WIATR.......... północny (N) z prędkością 9 km/h
WIDZIALNOŚĆ.. powyżej 10 kilometrów
WARUNKI........ słaby: deszcz 
CHMURY......... zachmurzenie całkowite (8/8)
TEMPERATURA.... 15°C
T.PUNKTU ROSY.. 13°C
WILGOTNOŚĆ... 88%
CIŚNIENIE..... 1019 hPa

Depesza METAR lotniska Katowice-Pyrzowice

METAR = EPKT 021330Z 03009KT 9999 SCT013 BKN020 18/14 Q1017

STACJA......... EPKT - Katowice-Pyrzowice (KTW)
POMIAR......... Tue Sep 2, 15:30 CEST
TERAZ.......... Tue Sep 2, 15:56 CEST
CZAS........... 26 min temu
WIATR.......... północno północno-wschodni (NNE) z prędkością 17 km/h
WIDZIALNOŚĆ.. powyżej 10 kilometrów
CHMURY......... zachmurzenie średnie (5/8-7/8)
TEMPERATURA.... 18°C
T.PUNKTU ROSY.. 14°C
WILGOTNOŚĆ... 78%
CIŚNIENIE..... 1017 hPa

Depesza METAR lotniska Gdańsk

METAR = EPGD 021330Z 05009KT 360V080 9999 SCT019 16/11 Q1023

STACJA......... EPGD - Gdańsk im. Lecha Wałęsy (GDN)
POMIAR......... Tue Sep 2, 15:30 CEST
TERAZ.......... Tue Sep 2, 15:56 CEST
CZAS........... 26 min temu
WIATR.......... północno-wschodni (NE) z prędkością 17 km/h
WIDZIALNOŚĆ.. powyżej 10 kilometrów
CHMURY......... zachmurzenie małe (3/8-4/8)
TEMPERATURA.... 16°C
T.PUNKTU ROSY.. 11°C
WILGOTNOŚĆ... 72%
CIŚNIENIE..... 1023 hPa

Depesza METAR lotniska Poznań-Ławica

METAR = EPPO 021330Z 01007KT 9999 -RA FEW009 BKN018 14/13 Q1021

STACJA......... EPPO - Poznań-Ławica (POZ)
POMIAR......... Tue Sep 2, 15:30 CEST
TERAZ.......... Tue Sep 2, 15:56 CEST
CZAS........... 26 min temu
WIATR.......... północny (N) z prędkością 13 km/h
WIDZIALNOŚĆ.. powyżej 10 kilometrów
WARUNKI........ słaby: deszcz 
CHMURY......... zachmurzenie średnie (5/8-7/8)
TEMPERATURA.... 14°C
T.PUNKTU ROSY.. 13°C
WILGOTNOŚĆ... 94%
CIŚNIENIE..... 1021 hPa

Depesza METAR lotniska Rzeszów-Jasionka

METAR = EPRZ 021330Z 06011KT 9999 FEW033 23/16 Q1015

STACJA......... EPRZ - Rzeszów-Jasionka (RZE)
POMIAR......... Tue Sep 2, 15:30 CEST
TERAZ.......... Tue Sep 2, 15:56 CEST
CZAS........... 26 min temu
WIATR.......... wschodni północno-wschodni (ENE) z prędkością 20 km/h
WIDZIALNOŚĆ.. powyżej 10 kilometrów
CHMURY......... zachmurzenie niewielkie (1/8-2/8)
TEMPERATURA.... 23°C
T.PUNKTU ROSY.. 16°C
WILGOTNOŚĆ... 65%
CIŚNIENIE..... 1015 hPa

Depesza METAR lotniska Szczecin-Goleniów

METAR = EPSC 021330Z 09006KT 9999 SCT042 19/10 Q1023

STACJA......... EPSC - Szczecin-Goleniów (SZZ)
POMIAR......... Tue Sep 2, 15:30 CEST
TERAZ.......... Tue Sep 2, 15:56 CEST
CZAS........... 26 min temu
WIATR.......... wschodni (E) z prędkością 11 km/h
WIDZIALNOŚĆ.. powyżej 10 kilometrów
CHMURY......... zachmurzenie małe (3/8-4/8)
TEMPERATURA.... 19°C
T.PUNKTU ROSY.. 10°C
WILGOTNOŚĆ... 56%
CIŚNIENIE..... 1023 hPa

Depesza METAR lotniska Lublin-Świdnik

METAR = EPLB 221500Z VRB01KT 9999 FEW020 BKN080 26/23 Q1009 NOSIG

STACJA......... EPLB - Lublin-Świdnik (LUZ)
POMIAR......... Mon Aug 22, 17:00 CEST
TERAZ.......... Tue Sep 2, 15:56 CEST
CZAS........... 26566:56 godz temu
WIATR.......... zmienny z prędkością 2 km/h
WIDZIALNOŚĆ.. powyżej 10 kilometrów
CHMURY......... zachmurzenie średnie (5/8-7/8)
TEMPERATURA.... 26°C
T.PUNKTU ROSY.. 23°C
WILGOTNOŚĆ... 84%
CIŚNIENIE..... 1009 hPa
PROGNOZA....... bez nagłych zmian w ciągu 2h

Sprawdź też: prognoza pogody dla miast w Polsce!